Santa Margherita — V7JA2 — position and weather

sailwx.info

Track history (hours):
 
Tides and Currents Weather Stations Pressure Air Temp Water Temp Dewpoint Dewpoint Depression Visibility Wind Speed Wind Dir Waves Ship Positions

Santa Margherita

Last reported at 2017-Sep-24 01:29 UTC. Time now 2017-Sep-24 01:34 UTC.
Position N 40°15' E 122°05'.

Length 190 m; draft 12.7 m.

Type: Cargo ship. MMSI: 538090191.

Date/timePositionNaut miles runAvg speedWind from/ knotsBaromVisibWave heightAir tempDewpointWater temp
2017-Sep-24 01:29N 40°15' E 122°05'0 0.0
2017-Sep-24 00:59N 40°15' E 122°05'0 0.0
2017-Sep-24 00:23N 40°15' E 122°05'0 0.0
2017-Sep-23 23:59N 40°15' E 122°05'0 0.0
2017-Sep-23 23:29N 40°15' E 122°05'0 0.0
2017-Sep-23 22:35N 40°15' E 122°05'0 0.0
2017-Sep-23 22:29N 40°15' E 122°05'0 0.0
2017-Sep-23 21:59N 40°15' E 122°05'0 0.0
2017-Sep-23 21:23N 40°15' E 122°05'0 0.0
2017-Sep-23 20:59N 40°15' E 122°05'0 0.0
2017-Sep-23 20:23N 40°15' E 122°05'0 0.0
2017-Sep-23 19:41N 40°15' E 122°05'0 0.0
2017-Sep-22 01:58N 40°15' E 122°05'0 0.0
2017-Sep-22 01:28N 40°15' E 122°05'0 0.0
2017-Sep-22 00:58N 40°15' E 122°05'0 0.0
2017-Sep-22 00:28N 40°15' E 122°05'0 0.0
2017-Sep-21 23:58N 40°15' E 122°05'0 0.0
2017-Sep-21 23:22N 40°15' E 122°05'0 0.0
2017-Sep-21 22:58N 40°15' E 122°05'0 0.0
2017-Sep-21 22:28N 40°15' E 122°05'0 0.0
2017-Sep-21 21:52N 40°15' E 122°05'0 0.0
2017-Sep-21 21:28N 40°15' E 122°05'0 0.0
2017-Sep-21 17:04N 40°15' E 122°05'0 0.0
2017-Sep-21 16:58N 40°15' E 122°05'0 0.0
2017-Sep-21 16:28N 40°15' E 122°05'0 0.0
2017-Sep-21 15:58N 40°15' E 122°05'0 0.0
2017-Sep-21 15:28N 40°15' E 122°05'0 0.0
2017-Sep-21 14:46N 40°15' E 122°05'0 0.0
2017-Sep-21 14:16N 40°15' E 122°05'0 0.0
2017-Sep-21 13:58N 40°15' E 122°05'0 0.0
2017-Sep-21 13:28N 40°15' E 122°05'0 0.0
2017-Sep-21 12:58N 40°15' E 122°05'0 0.0
2017-Sep-21 12:28N 40°15' E 122°05'0 0.0
2017-Sep-21 11:51N 40°15' E 122°05'0 0.0
2017-Sep-21 11:21N 40°15' E 122°05'0 0.0
2017-Sep-21 10:33N 40°15' E 122°05'0 0.1
2017-Sep-21 10:27N 40°15' E 122°05'0 0.0
2017-Sep-21 09:51N 40°15' E 122°05'0 0.0
2017-Sep-21 09:27N 40°15' E 122°05'0 0.0
2017-Sep-21 08:57N 40°15' E 122°05'0 0.0
2017-Sep-21 08:27N 40°15' E 122°05'0 0.0
2017-Sep-21 07:51N 40°15' E 122°05'0 0.0
2017-Sep-21 07:27N 40°15' E 122°05'0 0.0
2017-Sep-21 06:45N 40°15' E 122°05'0 0.0
2017-Sep-21 06:27N 40°15' E 122°05'0 0.0
2017-Sep-21 05:57N 40°15' E 122°05'0 0.0
2017-Sep-21 03:51N 40°15' E 122°05'0 0.0
2017-Sep-21 03:03N 40°15' E 122°05'0 0.0
2017-Sep-21 02:57N 40°15' E 122°05'0 0.0
2017-Sep-21 02:27N 40°15' E 122°05'0 0.0
2017-Sep-21 01:57N 40°15' E 122°05'0 0.0
2017-Sep-21 01:27N 40°15' E 122°05'0 0.0
2017-Sep-21 00:57N 40°15' E 122°05'0 0.0
2017-Sep-21 00:27N 40°15' E 122°05'0 0.0
2017-Sep-20 23:51N 40°15' E 122°05'0 0.0
2017-Sep-20 23:27N 40°15' E 122°05'0 0.0
2017-Sep-20 22:57N 40°15' E 122°05'0 0.0
2017-Sep-20 22:27N 40°15' E 122°05'129 3.9
2017-Sep-19 13:39N 38°06' E 121°54'2 9.8
2017-Sep-19 13:28N 38°05' E 121°55'510.0
2017-Sep-19 13:00N 38°03' E 122°00'5 9.8
2017-Sep-19 12:30N 38°00' E 122°05'510.0
2017-Sep-19 12:00N 37°57' E 122°11'510.0
2017-Sep-19 11:29N 37°54' E 122°16'510.4
2017-Sep-19 11:01N 37°52' E 122°21'510.5
2017-Sep-19 10:31N 37°49' E 122°27'510.7
2017-Sep-19 10:00N 37°46' E 122°33'510.7
2017-Sep-19 09:31N 37°43' E 122°38'510.8
2017-Sep-19 09:01N 37°39' E 122°43'510.4
2017-Sep-19 08:30N 37°35' E 122°47'510.7
2017-Sep-19 08:00N 37°30' E 122°50'510.8
2017-Sep-19 07:30N 37°25' E 122°52'1610.1
2017-Sep-19 05:57N 37°09' E 122°53'410.0
2017-Sep-19 05:30N 37°05' E 122°53'5 9.8
2017-Sep-19 04:59N 36°60' E 122°54'5 9.6
2017-Sep-19 04:30N 36°55' E 122°54'37510.4
2017-Sep-17 16:21N 30°41' E 123°20'5 8.8
2017-Sep-17 15:47N 30°36' E 123°19'12 8.6
2017-Sep-17 14:26N 30°24' E 123°19'  
Track history (hours):
 
Tides and Currents Weather Stations Pressure Air Temp Water Temp Dewpoint Dewpoint Depression Visibility Wind Speed Wind Dir Waves Ship Positions

Santa Margherita

Last reported at 2017-Sep-24 01:29 UTC. Time now 2017-Sep-24 01:34 UTC.
Position N 40°15' E 122°05'.

Length 190 m; draft 12.7 m.

Type: Cargo ship. MMSI: 538090191.

Date/timePositionNaut miles runAvg speedWind from/ knotsBaromVisibWave heightAir tempDewpointWater temp
2017-Sep-24 01:29N 40°15' E 122°05'0 0.0
2017-Sep-24 00:59N 40°15' E 122°05'0 0.0
2017-Sep-24 00:23N 40°15' E 122°05'0 0.0
2017-Sep-23 23:59N 40°15' E 122°05'0 0.0
2017-Sep-23 23:29N 40°15' E 122°05'0 0.0
2017-Sep-23 22:35N 40°15' E 122°05'0 0.0
2017-Sep-23 22:29N 40°15' E 122°05'0 0.0
2017-Sep-23 21:59N 40°15' E 122°05'0 0.0
2017-Sep-23 21:23N 40°15' E 122°05'0 0.0
2017-Sep-23 20:59N 40°15' E 122°05'0 0.0
2017-Sep-23 20:23N 40°15' E 122°05'0 0.0
2017-Sep-23 19:41N 40°15' E 122°05'0 0.0
2017-Sep-22 01:58N 40°15' E 122°05'0 0.0
2017-Sep-22 01:28N 40°15' E 122°05'0 0.0
2017-Sep-22 00:58N 40°15' E 122°05'0 0.0
2017-Sep-22 00:28N 40°15' E 122°05'0 0.0
2017-Sep-21 23:58N 40°15' E 122°05'0 0.0
2017-Sep-21 23:22N 40°15' E 122°05'0 0.0
2017-Sep-21 22:58N 40°15' E 122°05'0 0.0
2017-Sep-21 22:28N 40°15' E 122°05'0 0.0
2017-Sep-21 21:52N 40°15' E 122°05'0 0.0
2017-Sep-21 21:28N 40°15' E 122°05'0 0.0
2017-Sep-21 17:04N 40°15' E 122°05'0 0.0
2017-Sep-21 16:58N 40°15' E 122°05'0 0.0
2017-Sep-21 16:28N 40°15' E 122°05'0 0.0
2017-Sep-21 15:58N 40°15' E 122°05'0 0.0
2017-Sep-21 15:28N 40°15' E 122°05'0 0.0
2017-Sep-21 14:46N 40°15' E 122°05'0 0.0
2017-Sep-21 14:16N 40°15' E 122°05'0 0.0
2017-Sep-21 13:58N 40°15' E 122°05'0 0.0
2017-Sep-21 13:28N 40°15' E 122°05'0 0.0
2017-Sep-21 12:58N 40°15' E 122°05'0 0.0
2017-Sep-21 12:28N 40°15' E 122°05'0 0.0
2017-Sep-21 11:51N 40°15' E 122°05'0 0.0
2017-Sep-21 11:21N 40°15' E 122°05'0 0.0
2017-Sep-21 10:33N 40°15' E 122°05'0 0.1
2017-Sep-21 10:27N 40°15' E 122°05'0 0.0
2017-Sep-21 09:51N 40°15' E 122°05'0 0.0
2017-Sep-21 09:27N 40°15' E 122°05'0 0.0
2017-Sep-21 08:57N 40°15' E 122°05'0 0.0
2017-Sep-21 08:27N 40°15' E 122°05'0 0.0
2017-Sep-21 07:51N 40°15' E 122°05'0 0.0
2017-Sep-21 07:27N 40°15' E 122°05'0 0.0
2017-Sep-21 06:45N 40°15' E 122°05'0 0.0
2017-Sep-21 06:27N 40°15' E 122°05'0 0.0
2017-Sep-21 05:57N 40°15' E 122°05'0 0.0
2017-Sep-21 03:51N 40°15' E 122°05'0 0.0
2017-Sep-21 03:03N 40°15' E 122°05'0 0.0
2017-Sep-21 02:57N 40°15' E 122°05'0 0.0
2017-Sep-21 02:27N 40°15' E 122°05'0 0.0
2017-Sep-21 01:57N 40°15' E 122°05'0 0.0
2017-Sep-21 01:27N 40°15' E 122°05'0 0.0
2017-Sep-21 00:57N 40°15' E 122°05'0 0.0
2017-Sep-21 00:27N 40°15' E 122°05'0 0.0
2017-Sep-20 23:51N 40°15' E 122°05'0 0.0
2017-Sep-20 23:27N 40°15' E 122°05'0 0.0
2017-Sep-20 22:57N 40°15' E 122°05'0 0.0
2017-Sep-20 22:27N 40°15' E 122°05'129 3.9
2017-Sep-19 13:39N 38°06' E 121°54'2 9.8
2017-Sep-19 13:28N 38°05' E 121°55'510.0
2017-Sep-19 13:00N 38°03' E 122°00'5 9.8
2017-Sep-19 12:30N 38°00' E 122°05'510.0
2017-Sep-19 12:00N 37°57' E 122°11'510.0
2017-Sep-19 11:29N 37°54' E 122°16'510.4
2017-Sep-19 11:01N 37°52' E 122°21'510.5
2017-Sep-19 10:31N 37°49' E 122°27'510.7
2017-Sep-19 10:00N 37°46' E 122°33'510.7
2017-Sep-19 09:31N 37°43' E 122°38'510.8
2017-Sep-19 09:01N 37°39' E 122°43'510.4
2017-Sep-19 08:30N 37°35' E 122°47'510.7
2017-Sep-19 08:00N 37°30' E 122°50'510.8
2017-Sep-19 07:30N 37°25' E 122°52'1610.1
2017-Sep-19 05:57N 37°09' E 122°53'410.0
2017-Sep-19 05:30N 37°05' E 122°53'5 9.8
2017-Sep-19 04:59N 36°60' E 122°54'5 9.6
2017-Sep-19 04:30N 36°55' E 122°54'37510.4
2017-Sep-17 16:21N 30°41' E 123°20'5 8.8
2017-Sep-17 15:47N 30°36' E 123°19'12 8.6
2017-Sep-17 14:26N 30°24' E 123°19'  

Dump ship's entire track history